Putnam, Texas
Current Conditions -  °F | °C
As of 8:52 AM on Saturday 25 Oct 2014 (Local Time) from KABI Reporting Station
Clear Clear  
Wind Chill: 67°   Ceiling: Unl
Heat Index: 67°   Visibility: 10mi
Dew Point: 58°   Wind: 5mph
Humidity: 73%   Direction: 220°SW
Pressure: 30.17"   Gusts: NA
Location:  32.37°N, 99.19°W
Report Text: KABI 251352Z 22004KT 10SM CLR 19/14 A3017 RMK AO2 SLP195 T01940144 $
Loading
Personal Weather Stations






























Interactive Weather Map
Tropical Storm Tracking
New forecast layout! Learn more

10-Day Weather Forecast

Advertisements
Track Severe Weather on mobile